Аэропорт: Ханты-Мансийск. Ханты-Мансийск

ICAO: USHH

METAR:
2018/09/23 11:00
USHH 231100Z 24002MPS 9999 FEW040 12/08 Q1013 R24/010060 NOSIG RMK QFE756
METAR:
2018/09/23 09:00
TAF USHH 230753Z 2309/2409 25003G08MPS 9999 BKN015 
      TEMPO 2309/2315 3100 -SHRA BKN011CB 
      TEMPO 2315/2403 3100 BR SCT003 BKN011